createdAt,value
2022-11-15T00:01:31.900Z,6.28
2022-11-15T00:03:58.970Z,5.75
2022-11-15T00:06:32.917Z,5.78
2022-11-15T00:09:00.959Z,5.88
2022-11-15T00:11:34.844Z,4.93
2022-11-15T00:14:03.524Z,5.50
2022-11-15T00:16:30.639Z,6.28
2022-11-15T00:19:04.867Z,5.88
2022-11-15T00:21:32.005Z,5.80
2022-11-15T00:24:06.864Z,5.28
2022-11-15T00:26:40.895Z,5.60
2022-11-15T00:29:14.927Z,5.80
2022-11-15T00:31:42.054Z,7.05
2022-11-15T00:34:16.881Z,6.47
2022-11-15T00:36:50.935Z,5.80
2022-11-15T00:39:30.871Z,5.78
2022-11-15T00:42:10.909Z,5.30
2022-11-15T00:44:44.839Z,5.50
2022-11-15T00:47:18.918Z,5.43
2022-11-15T00:49:52.904Z,6.50
2022-11-15T00:52:20.046Z,5.25
2022-11-15T00:54:53.909Z,5.00
2022-11-15T00:57:21.098Z,4.85
2022-11-15T00:59:54.868Z,5.32
2022-11-15T01:02:22.072Z,5.78
2022-11-15T01:04:55.896Z,5.53
2022-11-15T01:07:29.892Z,5.03
2022-11-15T01:10:03.920Z,4.78
2022-11-15T01:12:31.096Z,5.03
2022-11-15T01:15:04.901Z,5.50
2022-11-15T01:17:38.886Z,4.65
2022-11-15T01:20:13.888Z,4.75
2022-11-15T01:22:47.897Z,5.03
2022-11-15T01:25:21.873Z,5.55
2022-11-15T01:27:49.340Z,6.13
2022-11-15T01:30:22.905Z,4.75
2022-11-15T01:32:49.976Z,4.60
2022-11-15T01:35:23.926Z,5.28
2022-11-15T01:37:57.840Z,4.32
2022-11-15T01:40:37.956Z,4.70
2022-11-15T01:43:33.053Z,4.72
2022-11-15T01:46:40.927Z,4.65
2022-11-15T01:49:15.645Z,4.10
2022-11-15T01:51:48.946Z,3.97
2022-11-15T01:54:19.807Z,4.63
2022-11-15T01:57:00.903Z,4.45
2022-11-15T01:59:28.391Z,5.38
2022-11-15T02:02:01.877Z,5.22
2022-11-15T02:04:35.321Z,4.35
2022-11-15T02:07:11.913Z,4.10
2022-11-15T02:09:39.926Z,5.03
2022-11-15T02:12:16.917Z,4.50
2022-11-15T02:14:54.925Z,3.85
2022-11-15T02:17:36.187Z,4.20
2022-11-15T02:20:18.876Z,3.78
2022-11-15T02:23:15.898Z,4.03
2022-11-15T02:26:15.916Z,4.25
2022-11-15T02:29:30.891Z,4.03
2022-11-15T02:32:34.947Z,3.90
2022-11-15T02:35:17.039Z,4.28
2022-11-15T02:37:52.856Z,3.67
2022-11-15T02:41:04.081Z,3.55
2022-11-15T02:44:05.892Z,4.22
2022-11-15T02:47:19.572Z,3.65
2022-11-15T02:50:01.863Z,3.78
2022-11-15T02:52:29.046Z,4.03
2022-11-15T02:55:07.846Z,4.45
2022-11-15T02:57:52.977Z,3.65
2022-11-15T03:00:26.861Z,4.65
2022-11-15T03:03:21.113Z,3.60
2022-11-15T03:06:15.921Z,3.80
2022-11-15T03:09:18.900Z,3.63
2022-11-15T03:11:52.364Z,4.32
2022-11-15T03:14:33.941Z,3.88
2022-11-15T03:17:17.818Z,3.28
2022-11-15T03:19:57.937Z,3.72
2022-11-15T03:22:28.875Z,3.63
2022-11-15T03:25:06.940Z,3.60
2022-11-15T03:27:40.300Z,4.00
2022-11-15T03:30:15.866Z,4.28
2022-11-15T03:32:58.920Z,3.83
2022-11-15T03:35:30.094Z,3.72
2022-11-15T03:38:22.105Z,4.28
2022-11-15T03:41:12.890Z,3.60
2022-11-15T03:43:47.666Z,4.03
2022-11-15T03:46:25.885Z,3.67
2022-11-15T03:49:01.186Z,3.60
2022-11-15T03:51:34.990Z,4.00
2022-11-15T03:54:13.965Z,4.28
2022-11-15T03:56:47.901Z,4.05
2022-11-15T03:59:14.988Z,4.07
2022-11-15T04:01:48.887Z,4.25
2022-11-15T04:04:22.962Z,3.97
2022-11-15T04:06:50.111Z,4.22
2022-11-15T04:09:23.921Z,3.67
2022-11-15T04:11:51.014Z,3.65
2022-11-15T04:14:24.887Z,4.25
2022-11-15T04:16:52.112Z,3.83
2022-11-15T04:19:43.952Z,3.90
2022-11-15T04:22:35.910Z,3.28
2022-11-15T04:25:03.053Z,4.40
2022-11-15T04:27:30.217Z,4.07
2022-11-15T04:30:18.901Z,4.22
2022-11-15T04:32:52.625Z,4.10
2022-11-15T04:35:25.947Z,3.90
2022-11-15T04:37:59.912Z,4.15
2022-11-15T04:40:34.063Z,3.60
2022-11-15T04:43:07.907Z,4.32
2022-11-15T04:45:41.968Z,4.55
2022-11-15T04:48:09.041Z,3.25
2022-11-15T04:50:42.901Z,3.95
2022-11-15T04:53:09.990Z,4.25
2022-11-15T04:55:43.940Z,4.07
2022-11-15T04:58:17.946Z,4.47
2022-11-15T05:00:45.199Z,3.25
2022-11-15T05:03:37.932Z,3.90
2022-11-15T05:06:11.940Z,3.70
2022-11-15T05:08:39.028Z,3.78
2022-11-15T05:11:12.890Z,3.55
2022-11-15T05:13:39.969Z,4.35
2022-11-15T05:16:14.035Z,3.20
2022-11-15T05:18:41.800Z,4.22
2022-11-15T05:21:20.906Z,3.80
2022-11-15T05:23:48.029Z,3.70
2022-11-15T05:26:23.914Z,3.90
2022-11-15T05:29:05.935Z,4.13
2022-11-15T05:31:39.900Z,4.25
2022-11-15T05:34:07.275Z,4.28
2022-11-15T05:36:50.945Z,4.65
2022-11-15T05:39:24.719Z,4.35
2022-11-15T05:42:21.936Z,3.97
2022-11-15T05:44:50.814Z,4.80
2022-11-15T05:47:33.921Z,4.20
2022-11-15T05:50:07.901Z,4.85
2022-11-15T05:52:38.269Z,4.15
2022-11-15T05:55:14.954Z,4.88
2022-11-15T05:57:48.911Z,3.97
2022-11-15T06:00:16.197Z,4.43
2022-11-15T06:02:49.916Z,3.90
2022-11-15T06:05:23.940Z,4.38
2022-11-15T06:07:51.051Z,4.32
2022-11-15T06:10:25.940Z,3.90
2022-11-15T06:13:11.898Z,4.40
2022-11-15T06:15:39.087Z,4.30
2022-11-15T06:18:12.986Z,4.25
2022-11-15T06:20:40.160Z,4.75
2022-11-15T06:23:13.920Z,5.00
2022-11-15T06:25:41.036Z,4.72
2022-11-15T06:28:08.121Z,4.38
2022-11-15T06:30:41.980Z,4.20
2022-11-15T06:33:10.030Z,4.68
2022-11-15T06:35:44.957Z,4.72
2022-11-15T06:38:20.040Z,5.03
2022-11-15T06:43:27.520Z,6.70
2022-11-15T06:46:00.942Z,7.47
2022-11-15T06:48:29.501Z,8.18
2022-11-15T06:51:05.912Z,8.82
2022-11-15T06:53:34.311Z,8.25
2022-11-15T06:56:09.936Z,11.10
2022-11-15T06:58:37.661Z,10.15
2022-11-15T07:01:18.122Z,9.90
2022-11-15T07:03:46.522Z,9.60
2022-11-15T07:06:20.119Z,8.95
2022-11-15T07:08:47.286Z,7.95
2022-11-15T07:11:14.875Z,9.45
2022-11-15T07:13:48.950Z,9.38
2022-11-15T07:16:16.063Z,7.88
2022-11-15T07:18:49.890Z,8.88
2022-11-15T07:21:17.094Z,9.93
2022-11-15T07:23:44.144Z,9.75
2022-11-15T07:26:17.938Z,10.75
2022-11-15T07:28:45.098Z,10.45
2022-11-15T07:31:18.970Z,9.98
2022-11-15T07:33:52.953Z,11.40
2022-11-15T07:36:20.272Z,9.77
2022-11-15T07:38:53.914Z,9.90
2022-11-15T07:41:27.053Z,9.15
2022-11-15T07:44:01.079Z,9.48
2022-11-15T07:46:28.230Z,8.43
2022-11-15T07:49:01.970Z,10.48
2022-11-15T07:51:29.032Z,12.15
2022-11-15T07:54:02.974Z,11.02
2022-11-15T07:56:30.450Z,9.85
2022-11-15T07:59:04.939Z,10.88
2022-11-15T08:01:32.177Z,11.57
2022-11-15T08:04:05.975Z,9.70
2022-11-15T08:06:33.360Z,10.48
2022-11-15T08:09:07.008Z,11.75
2022-11-15T08:11:40.944Z,9.45
2022-11-15T08:14:08.100Z,10.02
2022-11-15T08:16:41.947Z,10.90
2022-11-15T08:19:08.988Z,10.40
2022-11-15T08:21:42.970Z,9.13
2022-11-15T08:24:12.180Z,8.90
2022-11-15T08:26:46.118Z,12.10
2022-11-15T08:29:13.371Z,13.35
2022-11-15T08:31:46.932Z,12.10
2022-11-15T08:34:14.065Z,11.68
2022-11-15T08:36:47.974Z,9.55
2022-11-15T08:39:21.974Z,9.75
2022-11-15T08:42:01.973Z,8.80
2022-11-15T08:44:29.156Z,8.60
2022-11-15T08:46:56.371Z,8.70
2022-11-15T08:49:30.970Z,7.72
2022-11-15T08:51:58.216Z,7.15
2022-11-15T08:54:31.914Z,7.63
2022-11-15T08:56:59.277Z,7.57
2022-11-15T08:59:32.989Z,7.13
2022-11-15T09:02:00.181Z,7.18
2022-11-15T09:04:34.087Z,6.57
2022-11-15T09:07:08.004Z,8.07
2022-11-15T09:09:35.136Z,8.32
2022-11-15T09:12:08.980Z,7.78
2022-11-15T09:14:36.138Z,8.50
2022-11-15T09:17:04.519Z,8.82
2022-11-15T09:19:39.002Z,9.02
2022-11-15T09:22:09.616Z,9.27
2022-11-15T09:24:43.930Z,9.60
2022-11-15T09:27:18.039Z,8.77
2022-11-15T09:29:51.980Z,8.95
2022-11-15T09:32:19.040Z,8.10
2022-11-15T09:34:46.666Z,9.40
2022-11-15T09:37:19.986Z,9.57
2022-11-15T09:39:54.075Z,10.15
2022-11-15T09:42:35.971Z,10.32
2022-11-15T09:45:33.939Z,9.30
2022-11-15T09:48:07.440Z,11.13
2022-11-15T09:50:54.980Z,9.02
2022-11-15T09:54:30.802Z,9.75
2022-11-15T09:56:45.089Z,8.88
2022-11-15T09:59:27.941Z,8.60
2022-11-15T10:02:22.635Z,9.52
2022-11-15T10:04:55.935Z,9.77
2022-11-15T10:07:46.151Z,9.77
2022-11-15T10:10:22.971Z,8.15
2022-11-15T10:13:00.029Z,8.70
2022-11-15T10:15:34.042Z,7.93
2022-11-15T10:18:23.101Z,6.90
2022-11-15T10:21:02.091Z,6.43
2022-11-15T10:23:30.251Z,6.75
2022-11-15T10:26:06.386Z,5.72
2022-11-15T10:28:41.045Z,5.80
2022-11-15T10:31:25.226Z,7.40
2022-11-15T10:34:05.031Z,6.90
2022-11-15T10:36:40.090Z,7.40
2022-11-15T10:42:08.329Z,7.28
2022-11-15T10:44:44.426Z,7.45
2022-11-15T10:47:41.037Z,5.95
2022-11-15T10:50:38.161Z,5.88
2022-11-15T10:53:19.954Z,6.00
2022-11-15T10:55:52.758Z,6.70
2022-11-15T10:58:52.036Z,7.15
2022-11-15T11:01:23.164Z,7.40
2022-11-15T11:04:08.948Z,6.50
2022-11-15T11:07:00.081Z,7.22
2022-11-15T11:09:46.006Z,6.55
2022-11-15T11:12:19.987Z,7.05
2022-11-15T11:14:47.083Z,7.13
2022-11-15T11:17:39.001Z,6.82
2022-11-15T11:20:15.297Z,6.30
2022-11-15T11:23:25.978Z,6.82
2022-11-15T11:26:16.893Z,7.13
2022-11-15T11:29:02.995Z,6.72
2022-11-15T11:31:42.203Z,8.07
2022-11-15T11:34:33.967Z,7.15
2022-11-15T11:37:26.702Z,6.22
2022-11-15T11:40:16.188Z,6.18
2022-11-15T11:42:55.242Z,7.53
2022-11-15T11:45:34.987Z,6.55
2022-11-15T11:48:21.615Z,7.18
2022-11-15T11:50:57.005Z,7.40
2022-11-15T11:53:40.500Z,8.73
2022-11-15T11:56:29.985Z,7.55
2022-11-15T11:59:08.030Z,6.97
2022-11-15T12:01:51.154Z,9.38
2022-11-15T12:04:43.660Z,8.73
2022-11-15T12:07:25.053Z,8.90
2022-11-15T12:10:19.954Z,8.52
2022-11-15T12:13:09.081Z,8.80
2022-11-15T12:15:49.028Z,6.90
2022-11-15T12:18:17.552Z,7.30
2022-11-15T12:21:13.013Z,6.82
2022-11-15T12:23:51.305Z,7.22
2022-11-15T12:26:33.013Z,6.13
2022-11-15T12:29:08.111Z,6.85
2022-11-15T12:31:43.015Z,7.35
2022-11-15T12:34:22.109Z,6.82
2022-11-15T12:36:57.971Z,7.90
2022-11-15T12:40:21.997Z,8.15
2022-11-15T12:43:20.983Z,8.38
2022-11-15T12:45:54.989Z,7.30
2022-11-15T12:48:44.101Z,7.35
2022-11-15T12:51:11.269Z,7.38
2022-11-15T12:53:39.074Z,7.30
2022-11-15T12:56:18.034Z,6.30
2022-11-15T12:58:49.703Z,5.65
2022-11-15T13:01:39.127Z,5.88
2022-11-15T13:04:21.143Z,5.30
2022-11-15T13:07:11.083Z,5.78
2022-11-15T13:09:38.299Z,7.45
2022-11-15T13:12:15.161Z,6.72
2022-11-15T13:14:45.901Z,7.35
2022-11-15T13:17:39.141Z,6.93
2022-11-15T13:20:09.562Z,6.63
2022-11-15T13:23:12.033Z,7.00
2022-11-15T13:25:59.300Z,6.50
2022-11-15T13:28:47.100Z,6.18
2022-11-15T13:31:41.691Z,5.45
2022-11-15T13:34:56.251Z,5.10
2022-11-15T13:37:30.060Z,6.32
2022-11-15T13:40:49.021Z,6.15
2022-11-15T13:43:35.085Z,6.25
2022-11-15T13:46:33.020Z,5.63
2022-11-15T13:49:14.030Z,6.05
2022-11-15T13:51:56.062Z,4.60
2022-11-15T13:54:43.155Z,5.78
2022-11-15T13:57:25.091Z,5.20
2022-11-15T13:59:56.720Z,5.85
2022-11-15T14:02:40.100Z,7.28
2022-11-15T14:05:22.421Z,6.97
2022-11-15T14:08:30.420Z,7.03
2022-11-15T14:11:17.947Z,6.95
2022-11-15T14:14:16.031Z,5.82
2022-11-15T14:16:49.000Z,5.90
2022-11-15T14:19:29.091Z,5.78
2022-11-15T14:22:17.061Z,5.50
2022-11-15T14:25:13.096Z,5.63
2022-11-15T14:27:41.601Z,5.55
2022-11-15T14:30:23.071Z,6.55
2022-11-15T14:32:51.880Z,6.25
2022-11-15T14:35:31.071Z,6.43
2022-11-15T14:38:00.382Z,7.15
2022-11-15T14:40:33.996Z,6.75
2022-11-15T14:43:13.740Z,6.10
2022-11-15T14:45:48.058Z,6.15
2022-11-15T14:48:18.264Z,6.30
2022-11-15T14:50:52.985Z,5.72
2022-11-15T14:53:21.055Z,6.05
2022-11-15T14:55:55.003Z,6.13
2022-11-15T14:58:22.134Z,6.30
2022-11-15T15:00:56.008Z,6.45
2022-11-15T15:03:23.109Z,5.78
2022-11-15T15:05:57.081Z,5.55
2022-11-15T15:08:24.188Z,5.57
2022-11-15T15:10:51.289Z,8.10
2022-11-15T15:13:31.053Z,6.72
2022-11-15T15:16:00.326Z,6.78
2022-11-15T15:18:34.124Z,6.85
2022-11-15T15:21:08.460Z,6.50
2022-11-15T15:23:42.977Z,6.05
2022-11-15T15:26:17.005Z,6.15
2022-11-15T15:28:44.375Z,7.03
2022-11-15T15:31:18.964Z,7.35
2022-11-15T15:33:53.078Z,8.32
2022-11-15T15:36:20.538Z,9.37
2022-11-15T15:38:54.987Z,7.82
2022-11-15T15:41:29.238Z,6.97
2022-11-15T15:44:05.377Z,7.33
2022-11-15T15:46:32.696Z,7.72
2022-11-15T15:49:07.116Z,7.93
2022-11-15T15:51:34.346Z,7.10
2022-11-15T15:54:08.030Z,7.35
2022-11-15T15:56:42.198Z,7.65
2022-11-15T15:59:16.098Z,6.87
2022-11-15T16:01:43.649Z,7.28
2022-11-15T16:04:10.744Z,6.65
2022-11-15T16:06:47.128Z,7.45
2022-11-15T16:09:18.814Z,7.78
2022-11-15T16:11:54.038Z,7.10
2022-11-15T16:14:24.085Z,6.68
2022-11-15T16:16:58.045Z,7.95
2022-11-15T16:19:25.376Z,7.30
2022-11-15T16:22:02.115Z,6.00
2022-11-15T16:24:29.306Z,6.70
2022-11-15T16:27:04.065Z,7.53
2022-11-15T16:29:31.318Z,6.07
2022-11-15T16:32:05.000Z,5.82
2022-11-15T16:34:36.020Z,6.50
2022-11-15T16:37:28.749Z,5.90
2022-11-15T16:40:05.626Z,5.95
2022-11-15T16:42:47.830Z,7.25
2022-11-15T16:45:22.021Z,6.80
2022-11-15T16:47:49.162Z,6.30
2022-11-15T16:50:32.990Z,6.53
2022-11-15T16:53:00.375Z,7.10
2022-11-15T16:55:36.040Z,6.63
2022-11-15T16:58:10.018Z,6.90
2022-11-15T17:00:37.167Z,7.82
2022-11-15T17:03:05.046Z,7.05
2022-11-15T17:05:39.021Z,6.25
2022-11-15T17:08:06.628Z,5.43
2022-11-15T17:10:41.031Z,6.57
2022-11-15T17:13:13.974Z,6.05
2022-11-15T17:15:48.008Z,6.28
2022-11-15T17:18:22.002Z,5.70
2022-11-15T17:20:49.226Z,5.07
2022-11-15T17:23:23.168Z,4.78
2022-11-15T17:26:28.158Z,4.57
2022-11-15T17:29:04.013Z,4.65
2022-11-15T17:31:40.019Z,4.43
2022-11-15T17:34:07.617Z,4.40
2022-11-15T17:36:43.850Z,5.93
2022-11-15T17:39:11.013Z,6.03
2022-11-15T17:41:52.009Z,5.05
2022-11-15T17:44:25.809Z,5.15
2022-11-15T17:46:59.074Z,6.03
2022-11-15T17:49:26.990Z,5.07
2022-11-15T17:51:54.465Z,6.00
2022-11-15T17:54:28.622Z,5.35
2022-11-15T17:56:55.698Z,5.70
2022-11-15T17:59:29.032Z,5.03
2022-11-15T18:01:56.246Z,5.30
2022-11-15T18:04:28.493Z,5.05
2022-11-15T18:07:03.114Z,4.90
2022-11-15T18:09:37.128Z,5.65
2022-11-15T18:12:04.763Z,5.65
2022-11-15T18:14:38.028Z,6.10
2022-11-15T18:17:05.240Z,5.25
2022-11-15T18:19:39.241Z,5.55
2022-11-15T18:22:09.950Z,5.22
2022-11-15T18:24:48.141Z,6.30
2022-11-15T18:27:15.390Z,7.25
2022-11-15T18:29:52.078Z,5.45
2022-11-15T18:32:19.282Z,5.82
2022-11-15T18:34:53.135Z,5.65
2022-11-15T18:37:20.241Z,5.45
2022-11-15T18:40:01.092Z,4.72
2022-11-15T18:42:41.166Z,5.18
2022-11-15T18:45:09.992Z,5.78
2022-11-15T18:47:45.066Z,5.13
2022-11-15T18:52:56.213Z,5.20
2022-11-15T18:55:23.470Z,5.88
2022-11-15T18:57:57.136Z,4.93
2022-11-15T19:00:24.606Z,4.70
2022-11-15T19:03:01.081Z,4.15
2022-11-15T19:05:28.903Z,3.88
2022-11-15T19:08:03.202Z,3.33
2022-11-15T19:10:30.315Z,3.58
2022-11-15T19:13:04.091Z,4.00
2022-11-15T19:15:31.760Z,3.53
2022-11-15T19:17:59.274Z,3.90
2022-11-15T19:20:33.175Z,4.32
2022-11-15T19:23:07.143Z,3.75
2022-11-15T19:25:34.680Z,4.32
2022-11-15T19:28:01.768Z,5.85
2022-11-15T19:30:35.095Z,5.75
2022-11-15T19:33:09.029Z,4.85
2022-11-15T19:35:36.116Z,5.05
2022-11-15T19:38:10.066Z,5.18
2022-11-15T19:40:43.998Z,4.47
2022-11-15T19:43:17.189Z,4.68
2022-11-15T19:45:51.041Z,3.75
2022-11-15T19:48:18.072Z,3.53
2022-11-15T19:50:45.197Z,3.65
2022-11-15T19:53:19.049Z,3.50
2022-11-15T19:56:11.044Z,3.55
2022-11-15T19:58:45.044Z,3.03
2022-11-15T20:01:28.024Z,3.40
2022-11-15T20:04:05.064Z,3.58
2022-11-15T20:06:35.455Z,2.80
2022-11-15T20:09:10.040Z,2.97
2022-11-15T20:11:45.054Z,3.70
2022-11-15T20:16:52.966Z,3.03
2022-11-15T20:19:26.667Z,3.28
2022-11-15T20:22:00.042Z,3.05
2022-11-15T20:24:28.409Z,2.75
2022-11-15T20:27:02.031Z,3.05
2022-11-15T20:29:36.044Z,3.40
2022-11-15T20:32:03.194Z,3.08
2022-11-15T20:34:37.053Z,2.92
2022-11-15T20:37:04.263Z,3.28
2022-11-15T20:39:38.128Z,2.95
2022-11-15T20:42:18.086Z,3.45
2022-11-15T20:44:52.363Z,2.42
2022-11-15T20:47:30.152Z,3.47
2022-11-15T20:50:27.688Z,4.40
2022-11-15T20:52:51.692Z,3.00
2022-11-15T20:55:27.065Z,3.17
2022-11-15T20:57:54.437Z,3.63
2022-11-15T21:00:32.086Z,3.00
2022-11-15T21:02:59.178Z,3.88
2022-11-15T21:05:26.371Z,3.05
2022-11-15T21:08:00.155Z,3.90
2022-11-15T21:11:05.470Z,3.03
2022-11-15T21:13:39.101Z,3.17
2022-11-15T21:16:13.114Z,3.92
2022-11-15T21:18:40.273Z,3.17
2022-11-15T21:21:14.073Z,3.65
2022-11-15T21:23:48.028Z,3.20
2022-11-15T21:26:23.088Z,3.30
2022-11-15T21:31:24.218Z,3.50
2022-11-15T21:33:58.040Z,3.47
2022-11-15T21:36:32.281Z,4.00
2022-11-15T21:39:06.051Z,3.35
2022-11-15T21:41:46.130Z,3.78
2022-11-15T21:44:20.321Z,4.30
2022-11-15T21:46:54.079Z,3.93
2022-11-15T21:49:29.045Z,4.13
2022-11-15T21:51:56.146Z,3.05
2022-11-15T21:54:30.067Z,3.80
2022-11-15T21:56:57.171Z,4.07
2022-11-15T21:59:31.076Z,3.45
2022-11-15T22:02:23.095Z,3.83
2022-11-15T22:04:50.356Z,3.42
2022-11-15T22:07:24.208Z,3.20
2022-11-15T22:09:58.156Z,4.45
2022-11-15T22:12:32.155Z,3.20
2022-11-15T22:14:59.400Z,3.65
2022-11-15T22:17:53.124Z,3.47
2022-11-15T22:20:43.669Z,3.35
2022-11-15T22:23:14.036Z,3.80
2022-11-15T22:25:48.076Z,3.38
2022-11-15T22:28:15.325Z,3.45
2022-11-15T22:30:51.087Z,3.72
2022-11-15T22:33:26.154Z,3.67
2022-11-15T22:38:28.066Z,3.83
2022-11-15T22:41:09.068Z,3.38
2022-11-15T22:43:38.935Z,3.42
2022-11-15T22:46:06.236Z,2.70
2022-11-15T22:48:44.129Z,2.58
2022-11-15T22:51:11.402Z,2.85
2022-11-15T22:53:45.121Z,2.90
2022-11-15T22:56:16.285Z,2.85
2022-11-15T22:58:53.180Z,2.67
2022-11-15T23:01:29.092Z,2.97
2022-11-15T23:03:56.359Z,2.90
2022-11-15T23:06:30.088Z,3.13
2022-11-15T23:09:00.082Z,2.60
2022-11-15T23:11:53.037Z,2.50
2022-11-15T23:14:21.409Z,2.55
2022-11-15T23:16:55.064Z,2.70
2022-11-15T23:19:29.125Z,2.30
2022-11-15T23:22:21.063Z,2.15
2022-11-15T23:24:48.360Z,2.67
2022-11-15T23:27:27.075Z,3.33
2022-11-15T23:30:19.069Z,2.88
2022-11-15T23:33:11.047Z,2.13
2022-11-15T23:35:45.170Z,2.63
2022-11-15T23:38:19.114Z,2.03
2022-11-15T23:41:02.102Z,2.10
2022-11-15T23:43:36.243Z,1.90
2022-11-15T23:46:10.209Z,2.38
2022-11-15T23:48:37.398Z,2.38
2022-11-15T23:51:11.076Z,1.98
2022-11-15T23:53:38.924Z,1.83
2022-11-15T23:56:21.091Z,2.00
2022-11-15T23:58:48.983Z,2.10
